sensor_id;sensor_type;location;lat;lon;timestamp;P1;durP1;ratioP1;P2;durP2;ratioP2
20144;SDS011;10233;50.814;6.590;2023-02-15T00:00:46;33.63;;;15.10;;
20144;SDS011;10233;50.814;6.590;2023-02-15T00:01:47;35.60;;;15.33;;
20144;SDS011;10233;50.814;6.590;2023-02-15T00:02:50;37.67;;;15.63;;
20144;SDS011;10233;50.814;6.590;2023-02-15T00:03:50;34.77;;;16.00;;
20144;SDS011;10233;50.814;6.590;2023-02-15T00:04:51;42.75;;;15.85;;
20144;SDS011;10233;50.814;6.590;2023-02-15T00:05:51;37.00;;;16.70;;
20144;SDS011;10233;50.814;6.590;2023-02-15T00:06:52;34.47;;;15.00;;
20144;SDS011;10233;50.814;6.590;2023-02-15T00:07:52;34.40;;;14.33;;
20144;SDS011;10233;50.814;6.590;2023-02-15T00:08:53;35.20;;;15.30;;
20144;SDS011;10233;50.814;6.590;2023-02-15T00:09:54;40.92;;;14.85;;
20144;SDS011;10233;50.814;6.590;2023-02-15T00:11:07;36.53;;;15.60;;
20144;SDS011;10233;50.814;6.590;2023-02-15T00:12:09;35.65;;;15.13;;
20144;SDS011;10233;50.814;6.590;2023-02-15T00:13:10;36.45;;;15.05;;
20144;SDS011;10233;50.814;6.590;2023-02-15T00:15:30;36.13;;;15.68;;
20144;SDS011;10233;50.814;6.590;2023-02-15T00:16:30;33.35;;;15.13;;
20144;SDS011;10233;50.814;6.590;2023-02-15T00:17:31;38.07;;;15.63;;
20144;SDS011;10233;50.814;6.590;2023-02-15T00:18:32;32.67;;;14.73;;
20144;SDS011;10233;50.814;6.590;2023-02-15T00:19:32;35.35;;;16.08;;
20144;SDS011;10233;50.814;6.590;2023-02-15T00:20:33;34.03;;;15.90;;
20144;SDS011;10233;50.814;6.590;2023-02-15T00:21:33;35.05;;;15.18;;
20144;SDS011;10233;50.814;6.590;2023-02-15T00:22:35;34.43;;;15.27;;
20144;SDS011;10233;50.814;6.590;2023-02-15T00:23:35;34.43;;;15.57;;
20144;SDS011;10233;50.814;6.590;2023-02-15T00:24:36;34.30;;;15.05;;
20144;SDS011;10233;50.814;6.590;2023-02-15T00:25:36;35.22;;;14.88;;
20144;SDS011;10233;50.814;6.590;2023-02-15T00:26:37;36.90;;;15.67;;
20144;SDS011;10233;50.814;6.590;2023-02-15T00:27:39;34.08;;;15.05;;
20144;SDS011;10233;50.814;6.590;2023-02-15T00:28:39;33.47;;;14.95;;
20144;SDS011;10233;50.814;6.590;2023-02-15T00:29:40;36.30;;;15.80;;
20144;SDS011;10233;50.814;6.590;2023-02-15T00:30:40;35.35;;;15.43;;
20144;SDS011;10233;50.814;6.590;2023-02-15T00:31:41;37.43;;;15.13;;
20144;SDS011;10233;50.814;6.590;2023-02-15T00:32:42;33.37;;;14.80;;
20144;SDS011;10233;50.814;6.590;2023-02-15T00:33:42;31.87;;;14.17;;
20144;SDS011;10233;50.814;6.590;2023-02-15T00:34:42;31.55;;;14.13;;
20144;SDS011;10233;50.814;6.590;2023-02-15T00:35:43;34.07;;;14.40;;
20144;SDS011;10233;50.814;6.590;2023-02-15T00:36:44;35.25;;;14.80;;
20144;SDS011;10233;50.814;6.590;2023-02-15T00:37:44;34.03;;;14.57;;
20144;SDS011;10233;50.814;6.590;2023-02-15T00:38:45;32.80;;;14.80;;
20144;SDS011;10233;50.814;6.590;2023-02-15T00:39:45;35.35;;;14.35;;
20144;SDS011;10233;50.814;6.590;2023-02-15T00:40:51;34.97;;;15.07;;
20144;SDS011;10233;50.814;6.590;2023-02-15T00:41:52;33.28;;;15.40;;
20144;SDS011;10233;50.814;6.590;2023-02-15T00:42:53;35.60;;;15.50;;
20144;SDS011;10233;50.814;6.590;2023-02-15T00:43:53;32.77;;;14.20;;
20144;SDS011;10233;50.814;6.590;2023-02-15T00:47:15;32.30;;;14.20;;
20144;SDS011;10233;50.814;6.590;2023-02-15T00:48:16;32.53;;;14.03;;
20144;SDS011;10233;50.814;6.590;2023-02-15T00:49:16;34.10;;;14.65;;
20144;SDS011;10233;50.814;6.590;2023-02-15T00:50:17;35.00;;;14.90;;
20144;SDS011;10233;50.814;6.590;2023-02-15T00:51:20;31.20;;;15.00;;
20144;SDS011;10233;50.814;6.590;2023-02-15T00:52:21;32.75;;;14.35;;
20144;SDS011;10233;50.814;6.590;2023-02-15T00:53:22;30.37;;;14.00;;
20144;SDS011;10233;50.814;6.590;2023-02-15T00:54:22;30.98;;;14.30;;
20144;SDS011;10233;50.814;6.590;2023-02-15T00:55:23;32.20;;;13.75;;
20144;SDS011;10233;50.814;6.590;2023-02-15T00:56:24;35.03;;;14.60;;
20144;SDS011;10233;50.814;6.590;2023-02-15T00:57:24;33.07;;;13.73;;
20144;SDS011;10233;50.814;6.590;2023-02-15T00:58:25;31.83;;;14.43;;
20144;SDS011;10233;50.814;6.590;2023-02-15T00:59:25;32.67;;;14.18;;
20144;SDS011;10233;50.814;6.590;2023-02-15T01:00:26;32.20;;;14.03;;
20144;SDS011;10233;50.814;6.590;2023-02-15T01:01:26;33.08;;;13.65;;
20144;SDS011;10233;50.814;6.590;2023-02-15T01:02:27;30.50;;;14.50;;
20144;SDS011;10233;50.814;6.590;2023-02-15T01:03:28;34.42;;;14.90;;
20144;SDS011;10233;50.814;6.590;2023-02-15T01:04:28;30.07;;;13.43;;
20144;SDS011;10233;50.814;6.590;2023-02-15T01:05:31;32.90;;;14.30;;
20144;SDS011;10233;50.814;6.590;2023-02-15T01:06:32;32.72;;;14.23;;
20144;SDS011;10233;50.814;6.590;2023-02-15T01:07:32;32.67;;;14.60;;
20144;SDS011;10233;50.814;6.590;2023-02-15T01:08:33;32.87;;;14.57;;
20144;SDS011;10233;50.814;6.590;2023-02-15T01:09:34;32.60;;;13.77;;
20144;SDS011;10233;50.814;6.590;2023-02-15T01:10:34;34.00;;;14.80;;
20144;SDS011;10233;50.814;6.590;2023-02-15T01:11:36;32.28;;;14.32;;
20144;SDS011;10233;50.814;6.590;2023-02-15T01:12:36;32.70;;;14.35;;
20144;SDS011;10233;50.814;6.590;2023-02-15T01:13:37;30.63;;;14.67;;
20144;SDS011;10233;50.814;6.590;2023-02-15T01:14:40;34.30;;;14.68;;
20144;SDS011;10233;50.814;6.590;2023-02-15T01:15:41;33.05;;;14.98;;
20144;SDS011;10233;50.814;6.590;2023-02-15T01:16:42;30.90;;;14.20;;
20144;SDS011;10233;50.814;6.590;2023-02-15T01:17:43;36.40;;;15.30;;
20144;SDS011;10233;50.814;6.590;2023-02-15T01:18:45;36.38;;;15.75;;
20144;SDS011;10233;50.814;6.590;2023-02-15T01:19:46;31.38;;;14.38;;
20144;SDS011;10233;50.814;6.590;2023-02-15T01:20:46;37.15;;;16.48;;
20144;SDS011;10233;50.814;6.590;2023-02-15T01:21:48;32.20;;;14.83;;
20144;SDS011;10233;50.814;6.590;2023-02-15T01:22:48;35.03;;;15.23;;
20144;SDS011;10233;50.814;6.590;2023-02-15T01:23:49;33.00;;;15.15;;
20144;SDS011;10233;50.814;6.590;2023-02-15T01:24:51;34.97;;;15.85;;
20144;SDS011;10233;50.814;6.590;2023-02-15T01:25:54;32.50;;;14.90;;
20144;SDS011;10233;50.814;6.590;2023-02-15T01:26:54;36.13;;;14.68;;
20144;SDS011;10233;50.814;6.590;2023-02-15T01:27:55;34.10;;;14.68;;
20144;SDS011;10233;50.814;6.590;2023-02-15T01:28:55;32.63;;;14.53;;
20144;SDS011;10233;50.814;6.590;2023-02-15T01:29:57;34.40;;;14.25;;
20144;SDS011;10233;50.814;6.590;2023-02-15T01:30:57;30.23;;;14.17;;
20144;SDS011;10233;50.814;6.590;2023-02-15T01:31:59;31.83;;;14.68;;
20144;SDS011;10233;50.814;6.590;2023-02-15T01:32:59;32.10;;;14.95;;
20144;SDS011;10233;50.814;6.590;2023-02-15T01:34:04;32.85;;;14.57;;
20144;SDS011;10233;50.814;6.590;2023-02-15T01:35:05;34.40;;;14.93;;
20144;SDS011;10233;50.814;6.590;2023-02-15T01:36:06;36.63;;;14.73;;
20144;SDS011;10233;50.814;6.590;2023-02-15T01:37:06;36.17;;;15.63;;
20144;SDS011;10233;50.814;6.590;2023-02-15T01:38:08;33.75;;;15.02;;
20144;SDS011;10233;50.814;6.590;2023-02-15T01:39:11;33.10;;;14.57;;
20144;SDS011;10233;50.814;6.590;2023-02-15T01:40:12;34.35;;;14.68;;
20144;SDS011;10233;50.814;6.590;2023-02-15T01:41:17;31.95;;;14.35;;
20144;SDS011;10233;50.814;6.590;2023-02-15T01:42:23;30.80;;;13.95;;
20144;SDS011;10233;50.814;6.590;2023-02-15T01:43:38;34.50;;;15.15;;
20144;SDS011;10233;50.814;6.590;2023-02-15T01:45:53;36.47;;;15.45;;
20144;SDS011;10233;50.814;6.590;2023-02-15T01:46:53;37.63;;;14.80;;
20144;SDS011;10233;50.814;6.590;2023-02-15T01:48:04;36.33;;;14.68;;
20144;SDS011;10233;50.814;6.590;2023-02-15T01:49:19;37.38;;;15.25;;
20144;SDS011;10233;50.814;6.590;2023-02-15T01:50:27;37.20;;;16.02;;
20144;SDS011;10233;50.814;6.590;2023-02-15T01:51:29;34.88;;;15.32;;
20144;SDS011;10233;50.814;6.590;2023-02-15T01:52:33;35.50;;;15.95;;
20144;SDS011;10233;50.814;6.590;2023-02-15T01:53:38;35.35;;;15.77;;
20144;SDS011;10233;50.814;6.590;2023-02-15T01:54:43;33.47;;;14.98;;
20144;SDS011;10233;50.814;6.590;2023-02-15T01:56:05;35.88;;;14.85;;
20144;SDS011;10233;50.814;6.590;2023-02-15T01:57:12;35.35;;;14.52;;
20144;SDS011;10233;50.814;6.590;2023-02-15T01:58:18;34.80;;;15.45;;
20144;SDS011;10233;50.814;6.590;2023-02-15T01:59:20;35.05;;;15.48;;
20144;SDS011;10233;50.814;6.590;2023-02-15T02:00:23;32.83;;;14.93;;
20144;SDS011;10233;50.814;6.590;2023-02-15T02:01:24;35.15;;;15.80;;
20144;SDS011;10233;50.814;6.590;2023-02-15T02:02:27;37.03;;;16.15;;
20144;SDS011;10233;50.814;6.590;2023-02-15T02:04:50;33.13;;;14.48;;
20144;SDS011;10233;50.814;6.590;2023-02-15T02:05:53;35.65;;;15.35;;
20144;SDS011;10233;50.814;6.590;2023-02-15T02:06:54;33.88;;;14.90;;
20144;SDS011;10233;50.814;6.590;2023-02-15T02:07:56;34.92;;;15.77;;
20144;SDS011;10233;50.814;6.590;2023-02-15T02:08:59;34.13;;;14.23;;
20144;SDS011;10233;50.814;6.590;2023-02-15T02:10:01;35.60;;;15.30;;
20144;SDS011;10233;50.814;6.590;2023-02-15T02:11:04;33.63;;;14.93;;
20144;SDS011;10233;50.814;6.590;2023-02-15T02:12:12;35.80;;;15.48;;
20144;SDS011;10233;50.814;6.590;2023-02-15T02:13:15;36.22;;;15.18;;
20144;SDS011;10233;50.814;6.590;2023-02-15T02:14:16;32.27;;;14.60;;
20144;SDS011;10233;50.814;6.590;2023-02-15T02:15:20;35.92;;;15.13;;
20144;SDS011;10233;50.814;6.590;2023-02-15T02:16:28;34.88;;;15.57;;
20144;SDS011;10233;50.814;6.590;2023-02-15T02:20:50;32.85;;;14.85;;
20144;SDS011;10233;50.814;6.590;2023-02-15T02:25:14;34.35;;;14.82;;
20144;SDS011;10233;50.814;6.590;2023-02-15T02:28:04;35.22;;;15.20;;
20144;SDS011;10233;50.814;6.590;2023-02-15T02:30:51;36.40;;;15.35;;
20144;SDS011;10233;50.814;6.590;2023-02-15T02:32:44;32.03;;;15.32;;
20144;SDS011;10233;50.814;6.590;2023-02-15T02:34:08;38.90;;;15.25;;
20144;SDS011;10233;50.814;6.590;2023-02-15T02:35:22;33.58;;;14.90;;
20144;SDS011;10233;50.814;6.590;2023-02-15T02:36:40;32.42;;;14.68;;
20144;SDS011;10233;50.814;6.590;2023-02-15T02:42:18;34.53;;;15.90;;
20144;SDS011;10233;50.814;6.590;2023-02-15T02:43:51;34.30;;;15.18;;
20144;SDS011;10233;50.814;6.590;2023-02-15T02:45:03;34.72;;;15.48;;
20144;SDS011;10233;50.814;6.590;2023-02-15T02:46:11;32.80;;;15.02;;
20144;SDS011;10233;50.814;6.590;2023-02-15T02:47:22;33.50;;;15.40;;
20144;SDS011;10233;50.814;6.590;2023-02-15T02:48:30;30.73;;;14.27;;
20144;SDS011;10233;50.814;6.590;2023-02-15T02:50:52;34.50;;;15.15;;
20144;SDS011;10233;50.814;6.590;2023-02-15T02:51:59;34.87;;;15.40;;
20144;SDS011;10233;50.814;6.590;2023-02-15T02:53:00;32.95;;;13.93;;
20144;SDS011;10233;50.814;6.590;2023-02-15T02:54:01;34.10;;;15.00;;
20144;SDS011;10233;50.814;6.590;2023-02-15T02:55:08;31.55;;;14.25;;
20144;SDS011;10233;50.814;6.590;2023-02-15T02:56:16;33.25;;;14.40;;
20144;SDS011;10233;50.814;6.590;2023-02-15T02:57:23;32.92;;;14.65;;
20144;SDS011;10233;50.814;6.590;2023-02-15T02:58:28;32.60;;;14.00;;
20144;SDS011;10233;50.814;6.590;2023-02-15T02:59:38;32.55;;;14.75;;
20144;SDS011;10233;50.814;6.590;2023-02-15T03:02:05;30.00;;;14.15;;
20144;SDS011;10233;50.814;6.590;2023-02-15T03:03:18;31.05;;;13.52;;
20144;SDS011;10233;50.814;6.590;2023-02-15T03:04:25;35.00;;;15.23;;
20144;SDS011;10233;50.814;6.590;2023-02-15T03:05:31;37.17;;;15.05;;
20144;SDS011;10233;50.814;6.590;2023-02-15T03:07:49;35.67;;;15.07;;
20144;SDS011;10233;50.814;6.590;2023-02-15T03:08:55;29.63;;;13.70;;
20144;SDS011;10233;50.814;6.590;2023-02-15T03:10:03;32.85;;;14.40;;
20144;SDS011;10233;50.814;6.590;2023-02-15T03:11:07;30.45;;;14.15;;
20144;SDS011;10233;50.814;6.590;2023-02-15T03:12:09;30.55;;;13.80;;
20144;SDS011;10233;50.814;6.590;2023-02-15T03:13:13;33.30;;;13.65;;
20144;SDS011;10233;50.814;6.590;2023-02-15T03:14:15;30.48;;;13.95;;
20144;SDS011;10233;50.814;6.590;2023-02-15T03:15:31;31.42;;;13.75;;
20144;SDS011;10233;50.814;6.590;2023-02-15T03:16:55;28.10;;;13.48;;
20144;SDS011;10233;50.814;6.590;2023-02-15T03:17:57;29.90;;;13.55;;
20144;SDS011;10233;50.814;6.590;2023-02-15T03:19:06;29.08;;;12.75;;
20144;SDS011;10233;50.814;6.590;2023-02-15T03:20:22;28.17;;;12.50;;
20144;SDS011;10233;50.814;6.590;2023-02-15T03:22:48;30.77;;;13.63;;
20144;SDS011;10233;50.814;6.590;2023-02-15T03:23:54;29.90;;;12.75;;
20144;SDS011;10233;50.814;6.590;2023-02-15T03:26:15;30.83;;;13.10;;
20144;SDS011;10233;50.814;6.590;2023-02-15T03:27:19;28.63;;;13.57;;
20144;SDS011;10233;50.814;6.590;2023-02-15T03:28:23;28.65;;;12.85;;
20144;SDS011;10233;50.814;6.590;2023-02-15T03:29:38;30.80;;;13.43;;
20144;SDS011;10233;50.814;6.590;2023-02-15T03:30:39;29.42;;;13.50;;
20144;SDS011;10233;50.814;6.590;2023-02-15T03:31:44;28.95;;;13.32;;
20144;SDS011;10233;50.814;6.590;2023-02-15T03:32:51;27.13;;;12.38;;
20144;SDS011;10233;50.814;6.590;2023-02-15T03:33:57;29.83;;;13.57;;
20144;SDS011;10233;50.814;6.590;2023-02-15T03:35:02;31.85;;;14.15;;
20144;SDS011;10233;50.814;6.590;2023-02-15T03:36:11;27.20;;;12.88;;
20144;SDS011;10233;50.814;6.590;2023-02-15T03:37:40;30.15;;;13.73;;
20144;SDS011;10233;50.814;6.590;2023-02-15T03:41:55;29.80;;;13.38;;
20144;SDS011;10233;50.814;6.590;2023-02-15T03:43:03;30.63;;;14.40;;
20144;SDS011;10233;50.814;6.590;2023-02-15T03:44:18;31.48;;;14.45;;
20144;SDS011;10233;50.814;6.590;2023-02-15T03:45:29;33.83;;;14.77;;
20144;SDS011;10233;50.814;6.590;2023-02-15T03:46:33;33.22;;;14.57;;
20144;SDS011;10233;50.814;6.590;2023-02-15T03:47:36;34.50;;;14.98;;
20144;SDS011;10233;50.814;6.590;2023-02-15T03:48:40;32.40;;;14.73;;
20144;SDS011;10233;50.814;6.590;2023-02-15T03:50:07;34.40;;;15.30;;
20144;SDS011;10233;50.814;6.590;2023-02-15T03:51:30;32.95;;;15.10;;
20144;SDS011;10233;50.814;6.590;2023-02-15T03:52:35;37.80;;;15.77;;
20144;SDS011;10233;50.814;6.590;2023-02-15T03:53:36;35.88;;;14.82;;
20144;SDS011;10233;50.814;6.590;2023-02-15T03:54:39;36.00;;;15.48;;
20144;SDS011;10233;50.814;6.590;2023-02-15T03:55:50;35.40;;;14.88;;
20144;SDS011;10233;50.814;6.590;2023-02-15T03:56:54;35.45;;;15.38;;
20144;SDS011;10233;50.814;6.590;2023-02-15T03:58:17;35.10;;;14.70;;
20144;SDS011;10233;50.814;6.590;2023-02-15T03:59:36;32.08;;;14.65;;
20144;SDS011;10233;50.814;6.590;2023-02-15T04:01:00;29.23;;;13.35;;
20144;SDS011;10233;50.814;6.590;2023-02-15T04:02:24;30.90;;;13.80;;
20144;SDS011;10233;50.814;6.590;2023-02-15T04:03:36;31.95;;;13.98;;
20144;SDS011;10233;50.814;6.590;2023-02-15T04:04:43;32.38;;;15.00;;
20144;SDS011;10233;50.814;6.590;2023-02-15T04:05:46;30.98;;;13.75;;
20144;SDS011;10233;50.814;6.590;2023-02-15T04:06:47;29.00;;;13.98;;
20144;SDS011;10233;50.814;6.590;2023-02-15T04:07:48;29.00;;;13.27;;
20144;SDS011;10233;50.814;6.590;2023-02-15T04:08:48;27.83;;;12.80;;
20144;SDS011;10233;50.814;6.590;2023-02-15T04:10:07;29.80;;;13.63;;
20144;SDS011;10233;50.814;6.590;2023-02-15T04:11:26;27.30;;;12.90;;
20144;SDS011;10233;50.814;6.590;2023-02-15T04:12:27;27.38;;;12.60;;
20144;SDS011;10233;50.814;6.590;2023-02-15T04:13:31;27.93;;;13.00;;
20144;SDS011;10233;50.814;6.590;2023-02-15T04:14:32;27.15;;;12.63;;
20144;SDS011;10233;50.814;6.590;2023-02-15T04:15:53;25.50;;;12.15;;
20144;SDS011;10233;50.814;6.590;2023-02-15T04:17:06;27.02;;;12.88;;
20144;SDS011;10233;50.814;6.590;2023-02-15T04:18:07;28.52;;;12.75;;
20144;SDS011;10233;50.814;6.590;2023-02-15T04:19:08;26.03;;;12.27;;
20144;SDS011;10233;50.814;6.590;2023-02-15T04:20:27;26.47;;;12.47;;
20144;SDS011;10233;50.814;6.590;2023-02-15T04:21:46;26.33;;;12.68;;
20144;SDS011;10233;50.814;6.590;2023-02-15T04:23:06;27.77;;;12.73;;
20144;SDS011;10233;50.814;6.590;2023-02-15T04:24:25;29.33;;;12.68;;
20144;SDS011;10233;50.814;6.590;2023-02-15T04:25:44;26.60;;;12.90;;
20144;SDS011;10233;50.814;6.590;2023-02-15T04:26:44;28.88;;;13.07;;
20144;SDS011;10233;50.814;6.590;2023-02-15T04:27:49;28.55;;;12.68;;
20144;SDS011;10233;50.814;6.590;2023-02-15T04:28:54;27.23;;;12.75;;
20144;SDS011;10233;50.814;6.590;2023-02-15T04:29:54;31.05;;;13.32;;
20144;SDS011;10233;50.814;6.590;2023-02-15T04:30:54;30.23;;;13.23;;
20144;SDS011;10233;50.814;6.590;2023-02-15T04:31:56;27.65;;;11.77;;
20144;SDS011;10233;50.814;6.590;2023-02-15T04:32:59;28.42;;;12.70;;
20144;SDS011;10233;50.814;6.590;2023-02-15T04:33:59;25.42;;;11.60;;
20144;SDS011;10233;50.814;6.590;2023-02-15T04:35:00;26.93;;;12.60;;
20144;SDS011;10233;50.814;6.590;2023-02-15T04:36:02;25.60;;;11.70;;
20144;SDS011;10233;50.814;6.590;2023-02-15T04:37:03;28.83;;;13.10;;
20144;SDS011;10233;50.814;6.590;2023-02-15T04:38:04;27.95;;;12.98;;
20144;SDS011;10233;50.814;6.590;2023-02-15T04:39:05;28.03;;;12.73;;
20144;SDS011;10233;50.814;6.590;2023-02-15T04:40:06;28.88;;;13.15;;
20144;SDS011;10233;50.814;6.590;2023-02-15T04:41:10;27.67;;;12.75;;
20144;SDS011;10233;50.814;6.590;2023-02-15T04:42:15;26.58;;;12.07;;
20144;SDS011;10233;50.814;6.590;2023-02-15T04:43:16;27.77;;;12.40;;
20144;SDS011;10233;50.814;6.590;2023-02-15T04:44:16;29.33;;;13.47;;
20144;SDS011;10233;50.814;6.590;2023-02-15T04:45:17;26.00;;;12.25;;
20144;SDS011;10233;50.814;6.590;2023-02-15T04:46:17;29.73;;;12.52;;
20144;SDS011;10233;50.814;6.590;2023-02-15T04:47:18;26.73;;;12.57;;
20144;SDS011;10233;50.814;6.590;2023-02-15T04:48:18;28.60;;;12.77;;
20144;SDS011;10233;50.814;6.590;2023-02-15T04:49:19;28.48;;;13.40;;
20144;SDS011;10233;50.814;6.590;2023-02-15T04:50:19;24.90;;;11.70;;
20144;SDS011;10233;50.814;6.590;2023-02-15T04:51:20;26.63;;;12.70;;
20144;SDS011;10233;50.814;6.590;2023-02-15T04:52:20;28.23;;;12.70;;
20144;SDS011;10233;50.814;6.590;2023-02-15T04:53:21;29.50;;;12.95;;
20144;SDS011;10233;50.814;6.590;2023-02-15T04:54:21;27.13;;;12.03;;
20144;SDS011;10233;50.814;6.590;2023-02-15T04:55:22;24.97;;;11.80;;
20144;SDS011;10233;50.814;6.590;2023-02-15T04:56:22;29.13;;;12.93;;
20144;SDS011;10233;50.814;6.590;2023-02-15T04:57:23;26.73;;;13.10;;
20144;SDS011;10233;50.814;6.590;2023-02-15T04:58:23;26.60;;;12.53;;
20144;SDS011;10233;50.814;6.590;2023-02-15T04:59:24;29.20;;;12.95;;
20144;SDS011;10233;50.814;6.590;2023-02-15T05:00:24;26.73;;;12.10;;
20144;SDS011;10233;50.814;6.590;2023-02-15T05:01:25;24.42;;;11.40;;
20144;SDS011;10233;50.814;6.590;2023-02-15T05:02:26;25.23;;;11.93;;
20144;SDS011;10233;50.814;6.590;2023-02-15T05:03:26;26.73;;;12.93;;
20144;SDS011;10233;50.814;6.590;2023-02-15T05:04:27;25.00;;;11.93;;
20144;SDS011;10233;50.814;6.590;2023-02-15T05:05:28;27.50;;;11.63;;
20144;SDS011;10233;50.814;6.590;2023-02-15T05:06:28;25.90;;;12.15;;
20144;SDS011;10233;50.814;6.590;2023-02-15T05:07:29;27.20;;;11.80;;
20144;SDS011;10233;50.814;6.590;2023-02-15T05:08:29;22.77;;;11.35;;
20144;SDS011;10233;50.814;6.590;2023-02-15T05:09:30;23.67;;;11.73;;
20144;SDS011;10233;50.814;6.590;2023-02-15T05:10:31;24.30;;;11.37;;
20144;SDS011;10233;50.814;6.590;2023-02-15T05:11:31;25.07;;;11.23;;
20144;SDS011;10233;50.814;6.590;2023-02-15T05:12:32;25.55;;;12.00;;
20144;SDS011;10233;50.814;6.590;2023-02-15T05:13:32;26.77;;;12.17;;
20144;SDS011;10233;50.814;6.590;2023-02-15T05:14:32;24.45;;;11.88;;
20144;SDS011;10233;50.814;6.590;2023-02-15T05:15:33;23.57;;;11.37;;
20144;SDS011;10233;50.814;6.590;2023-02-15T05:16:34;24.63;;;12.13;;
20144;SDS011;10233;50.814;6.590;2023-02-15T05:17:35;23.90;;;11.30;;
20144;SDS011;10233;50.814;6.590;2023-02-15T05:18:35;24.90;;;11.47;;
20144;SDS011;10233;50.814;6.590;2023-02-15T05:19:36;25.15;;;11.77;;
20144;SDS011;10233;50.814;6.590;2023-02-15T05:20:36;26.47;;;12.03;;
20144;SDS011;10233;50.814;6.590;2023-02-15T05:21:36;28.50;;;12.80;;
20144;SDS011;10233;50.814;6.590;2023-02-15T05:22:37;24.00;;;11.37;;
20144;SDS011;10233;50.814;6.590;2023-02-15T05:23:38;29.20;;;12.32;;
20144;SDS011;10233;50.814;6.590;2023-02-15T05:24:38;25.63;;;12.23;;
20144;SDS011;10233;50.814;6.590;2023-02-15T05:25:57;25.15;;;11.38;;
20144;SDS011;10233;50.814;6.590;2023-02-15T05:27:16;26.15;;;11.57;;
20144;SDS011;10233;50.814;6.590;2023-02-15T05:28:36;25.88;;;12.25;;
20144;SDS011;10233;50.814;6.590;2023-02-15T05:29:37;26.40;;;11.52;;
20144;SDS011;10233;50.814;6.590;2023-02-15T05:30:38;27.77;;;12.23;;
20144;SDS011;10233;50.814;6.590;2023-02-15T05:31:39;27.02;;;12.18;;
20144;SDS011;10233;50.814;6.590;2023-02-15T05:32:40;25.08;;;11.52;;
20144;SDS011;10233;50.814;6.590;2023-02-15T05:33:41;29.33;;;12.53;;
20144;SDS011;10233;50.814;6.590;2023-02-15T05:34:42;25.80;;;11.35;;
20144;SDS011;10233;50.814;6.590;2023-02-15T05:35:42;27.33;;;12.33;;
20144;SDS011;10233;50.814;6.590;2023-02-15T05:36:43;26.55;;;12.32;;
20144;SDS011;10233;50.814;6.590;2023-02-15T05:37:44;27.83;;;11.75;;
20144;SDS011;10233;50.814;6.590;2023-02-15T05:38:44;29.27;;;13.07;;
20144;SDS011;10233;50.814;6.590;2023-02-15T05:39:45;26.55;;;12.27;;
20144;SDS011;10233;50.814;6.590;2023-02-15T05:40:45;27.42;;;12.63;;
20144;SDS011;10233;50.814;6.590;2023-02-15T05:41:46;27.30;;;12.73;;
20144;SDS011;10233;50.814;6.590;2023-02-15T05:42:46;29.90;;;13.20;;
20144;SDS011;10233;50.814;6.590;2023-02-15T05:43:47;28.37;;;12.90;;
20144;SDS011;10233;50.814;6.590;2023-02-15T05:44:47;25.93;;;12.63;;
20144;SDS011;10233;50.814;6.590;2023-02-15T05:45:50;29.83;;;13.07;;
20144;SDS011;10233;50.814;6.590;2023-02-15T05:46:52;31.63;;;13.07;;
20144;SDS011;10233;50.814;6.590;2023-02-15T05:47:52;27.07;;;12.27;;
20144;SDS011;10233;50.814;6.590;2023-02-15T05:48:53;26.43;;;12.80;;
20144;SDS011;10233;50.814;6.590;2023-02-15T05:49:53;28.42;;;12.35;;
20144;SDS011;10233;50.814;6.590;2023-02-15T05:51:01;29.60;;;13.27;;
20144;SDS011;10233;50.814;6.590;2023-02-15T05:52:02;28.17;;;12.93;;
20144;SDS011;10233;50.814;6.590;2023-02-15T05:53:03;28.98;;;12.57;;
20144;SDS011;10233;50.814;6.590;2023-02-15T05:54:03;27.37;;;13.23;;
20144;SDS011;10233;50.814;6.590;2023-02-15T05:55:04;25.23;;;11.57;;
20144;SDS011;10233;50.814;6.590;2023-02-15T05:56:06;26.55;;;11.80;;
20144;SDS011;10233;50.814;6.590;2023-02-15T05:57:07;24.47;;;12.07;;
20144;SDS011;10233;50.814;6.590;2023-02-15T05:58:08;31.23;;;12.30;;
20144;SDS011;10233;50.814;6.590;2023-02-15T05:59:08;27.55;;;12.48;;
20144;SDS011;10233;50.814;6.590;2023-02-15T06:00:09;28.40;;;13.27;;
20144;SDS011;10233;50.814;6.590;2023-02-15T06:01:15;25.00;;;12.35;;
20144;SDS011;10233;50.814;6.590;2023-02-15T06:02:17;26.30;;;12.25;;
20144;SDS011;10233;50.814;6.590;2023-02-15T06:03:18;29.90;;;12.18;;
20144;SDS011;10233;50.814;6.590;2023-02-15T06:04:18;25.90;;;11.70;;
20144;SDS011;10233;50.814;6.590;2023-02-15T06:05:19;26.15;;;12.27;;
20144;SDS011;10233;50.814;6.590;2023-02-15T06:06:19;24.77;;;11.77;;
20144;SDS011;10233;50.814;6.590;2023-02-15T06:07:20;26.53;;;11.97;;
20144;SDS011;10233;50.814;6.590;2023-02-15T06:08:20;26.83;;;12.57;;
20144;SDS011;10233;50.814;6.590;2023-02-15T06:09:21;25.90;;;12.13;;
20144;SDS011;10233;50.814;6.590;2023-02-15T06:10:21;26.15;;;11.65;;
20144;SDS011;10233;50.814;6.590;2023-02-15T06:11:22;26.97;;;12.47;;
20144;SDS011;10233;50.814;6.590;2023-02-15T06:12:22;31.00;;;12.73;;
20144;SDS011;10233;50.814;6.590;2023-02-15T06:13:22;26.63;;;12.03;;
20144;SDS011;10233;50.814;6.590;2023-02-15T06:14:23;25.87;;;12.23;;
20144;SDS011;10233;50.814;6.590;2023-02-15T06:15:23;26.92;;;11.90;;
20144;SDS011;10233;50.814;6.590;2023-02-15T06:16:24;23.67;;;11.73;;
20144;SDS011;10233;50.814;6.590;2023-02-15T06:17:24;25.80;;;11.30;;
20144;SDS011;10233;50.814;6.590;2023-02-15T06:18:25;26.10;;;11.93;;
20144;SDS011;10233;50.814;6.590;2023-02-15T06:19:25;23.73;;;11.30;;
20144;SDS011;10233;50.814;6.590;2023-02-15T06:20:26;27.73;;;12.82;;
20144;SDS011;10233;50.814;6.590;2023-02-15T06:21:26;28.33;;;12.90;;
20144;SDS011;10233;50.814;6.590;2023-02-15T06:22:27;26.58;;;11.82;;
20144;SDS011;10233;50.814;6.590;2023-02-15T06:23:27;26.58;;;12.60;;
20144;SDS011;10233;50.814;6.590;2023-02-15T06:24:28;29.25;;;12.02;;
20144;SDS011;10233;50.814;6.590;2023-02-15T06:25:29;29.03;;;12.80;;
20144;SDS011;10233;50.814;6.590;2023-02-15T06:26:29;26.73;;;11.85;;
20144;SDS011;10233;50.814;6.590;2023-02-15T06:27:29;28.00;;;12.30;;
20144;SDS011;10233;50.814;6.590;2023-02-15T06:28:30;29.55;;;12.70;;
20144;SDS011;10233;50.814;6.590;2023-02-15T06:29:31;25.70;;;11.85;;
20144;SDS011;10233;50.814;6.590;2023-02-15T06:30:31;26.80;;;11.60;;
20144;SDS011;10233;50.814;6.590;2023-02-15T06:31:32;25.77;;;12.23;;
20144;SDS011;10233;50.814;6.590;2023-02-15T06:32:33;25.10;;;11.95;;
20144;SDS011;10233;50.814;6.590;2023-02-15T06:33:34;27.47;;;11.60;;
20144;SDS011;10233;50.814;6.590;2023-02-15T06:34:34;24.83;;;11.38;;
20144;SDS011;10233;50.814;6.590;2023-02-15T06:35:34;25.23;;;12.30;;
20144;SDS011;10233;50.814;6.590;2023-02-15T06:36:35;26.60;;;11.63;;
20144;SDS011;10233;50.814;6.590;2023-02-15T06:37:36;26.25;;;11.90;;
20144;SDS011;10233;50.814;6.590;2023-02-15T06:38:38;26.75;;;12.10;;
20144;SDS011;10233;50.814;6.590;2023-02-15T06:39:38;24.27;;;11.43;;
20144;SDS011;10233;50.814;6.590;2023-02-15T06:40:39;23.40;;;11.60;;
20144;SDS011;10233;50.814;6.590;2023-02-15T06:41:39;26.83;;;12.02;;
20144;SDS011;10233;50.814;6.590;2023-02-15T06:42:43;24.57;;;11.73;;
20144;SDS011;10233;50.814;6.590;2023-02-15T06:43:43;24.80;;;11.55;;